Valor — WDD8691 — position and weather

sailwx.info

Track history (hours):
 
Tides and Currents Weather Stations Pressure Air Temp Water Temp Dewpoint Dewpoint Depression Visibility Wind Speed Wind Dir Waves Ship Positions

Valor

Owner: Crowley Marine Services, Seattle, WA. More information available from US FCC via Universal Licensing System and Coast Guard Vessel Documentation Center.

Last reported at 2016-Feb-07 11:10 UTC. Time now 2016-Feb-07 12:51 UTC.
Position N 38°03' W 122°15'.

Length 8 m; draft 5.5 m.

Type: Tug. MMSI: 367301480.

Date/timePositionNaut miles runAvg speedWind from/ knotsBaromVisibWave heightAir tempDewpointWater temp
2016-Feb-07 11:10N 38°03' W 122°15'0 0.0
2016-Feb-07 10:31N 38°03' W 122°15'0 0.0
2016-Feb-07 09:33N 38°03' W 122°15'0 0.0
2016-Feb-07 08:33N 38°03' W 122°15'1 0.8
2016-Feb-07 07:24N 38°03' W 122°16'1 1.3
2016-Feb-07 06:33N 38°03' W 122°17'2 1.9
2016-Feb-07 05:30N 38°03' W 122°15'1 0.1
2016-Feb-06 15:33N 38°04' W 122°16'10 9.8
2016-Feb-06 14:33N 37°58' W 122°26'2 2.4
2016-Feb-06 13:33N 37°55' W 122°25'5 5.2
2016-Feb-06 12:33N 37°50' W 122°24'2 2.2
2016-Feb-06 11:34N 37°48' W 122°24'0 0.0
2016-Feb-06 10:34N 37°48' W 122°24'0 0.0
2016-Feb-06 09:34N 37°48' W 122°24'0 0.0
2016-Feb-06 08:34N 37°48' W 122°24'0 0.0
2016-Feb-06 07:34N 37°48' W 122°24'0 0.0
2016-Feb-06 06:34N 37°48' W 122°24'0 0.0
2016-Feb-06 05:33N 37°48' W 122°24'0 0.0
2016-Feb-06 04:33N 37°48' W 122°24'0 0.0
2016-Feb-06 03:33N 37°48' W 122°24'0 0.0
2016-Feb-06 02:33N 37°48' W 122°24'4 3.9
2016-Feb-06 01:33N 37°45' W 122°21'3 3.2
2016-Feb-06 00:34N 37°48' W 122°23'7 6.6
2016-Feb-05 23:33N 37°49' W 122°31'3 3.4
2016-Feb-05 22:33N 37°49' W 122°27'2 2.5
2016-Feb-05 21:33N 37°48' W 122°24'1 1.2
2016-Feb-05 20:33N 37°49' W 122°24'6 6.2
2016-Feb-05 19:34N 37°56' W 122°25'3 2.8
2016-Feb-05 18:33N 37°53' W 122°25'3 2.6
2016-Feb-05 17:33N 37°55' W 122°25'1 0.6
2016-Feb-05 16:33N 37°55' W 122°25'1 0.6
2016-Feb-05 15:33N 37°55' W 122°25'0 0.0
2016-Feb-05 14:33N 37°55' W 122°25'0 0.0
2016-Feb-05 13:33N 37°55' W 122°25'0 0.0
2016-Feb-05 12:33N 37°55' W 122°25'0 0.0
2016-Feb-05 11:33N 37°55' W 122°25'0 0.0
2016-Feb-05 10:33N 37°55' W 122°25'0 0.0
2016-Feb-05 09:33N 37°55' W 122°25'0 0.0
2016-Feb-05 08:33N 37°55' W 122°25'0 0.0
2016-Feb-05 07:33N 37°55' W 122°25'0 0.0
2016-Feb-05 06:33N 37°55' W 122°25'0 0.0
2016-Feb-05 05:33N 37°55' W 122°25'0 0.0
2016-Feb-05 04:33N 37°55' W 122°25'1 0.5
2016-Feb-05 03:33N 37°56' W 122°25'3 3.2
2016-Feb-05 02:33N 37°52' W 122°24'3 2.8
2016-Feb-05 01:33N 37°55' W 122°25'0 0.0
2016-Feb-05 00:33N 37°55' W 122°25'0 0.0
2016-Feb-04 23:33N 37°55' W 122°25'0 0.0
2016-Feb-04 22:33N 37°55' W 122°25'0 0.0
2016-Feb-04 21:33N 37°55' W 122°25'0 0.0
2016-Feb-04 20:33N 37°55' W 122°25'0 0.0
2016-Feb-04 19:33N 37°55' W 122°25'3 3.3
2016-Feb-04 18:33N 37°58' W 122°26'9 9.3
2016-Feb-04 17:33N 38°04' W 122°16'6 3.1
2016-Feb-04 15:28N 38°02' W 122°08'5 4.3
2016-Feb-04 14:24N 38°04' W 122°14'4 0.3
2016-Feb-04 03:33N 38°03' W 122°18'9 9.4
2016-Feb-04 02:34N 37°56' W 122°26'1 1.2
2016-Feb-04 01:33N 37°55' W 122°25'7 7.3
2016-Feb-04 00:33N 37°48' W 122°30'1 0.9
2016-Feb-03 23:33N 37°48' W 122°30'8 8.1
2016-Feb-03 22:34N 37°49' W 122°19'1 0.9
2016-Feb-03 21:33N 37°49' W 122°19'0 0.0
2016-Feb-03 20:33N 37°49' W 122°19'0 0.0
2016-Feb-03 19:33N 37°49' W 122°19'0 0.0
2016-Feb-03 18:33N 37°49' W 122°19'0 0.0
2016-Feb-03 17:33N 37°49' W 122°19'2 1.6
2016-Feb-03 16:34N 37°48' W 122°19'1 0.7
2016-Feb-03 15:33N 37°48' W 122°18'2 2.0
2016-Feb-03 14:33N 37°49' W 122°20'0 0.0
2016-Feb-03 13:33N 37°49' W 122°20'0 0.0
2016-Feb-03 12:33N 37°49' W 122°20'0 0.1
2016-Feb-03 11:33N 37°49' W 122°20'1 0.5
2016-Feb-03 10:34N 37°49' W 122°19'1 0.6
2016-Feb-03 09:33N 37°49' W 122°19'0 0.0
2016-Feb-03 08:33N 37°49' W 122°19'0 0.0
2016-Feb-03 07:33N 37°49' W 122°19'0 0.0
2016-Feb-03 06:33N 37°49' W 122°19'0 0.0
2016-Feb-03 05:33N 37°49' W 122°19'0 0.0
2016-Feb-03 04:33N 37°49' W 122°19'0 0.0
2016-Feb-03 03:33N 37°49' W 122°19'0 0.0
2016-Feb-03 02:33N 37°49' W 122°19'0 0.0
2016-Feb-03 01:33N 37°49' W 122°19'0 0.0
2016-Feb-03 00:33N 37°49' W 122°19'0 0.0
2016-Feb-02 23:33N 37°49' W 122°19'0 0.0
2016-Feb-02 22:33N 37°49' W 122°19'0 0.0
2016-Feb-02 21:33N 37°49' W 122°19'0 0.0
2016-Feb-02 20:33N 37°49' W 122°19'0 0.0
2016-Feb-02 19:33N 37°49' W 122°19'0 0.0
2016-Feb-02 18:33N 37°49' W 122°19'0 0.0
2016-Feb-02 17:33N 37°49' W 122°19'1 0.9
2016-Feb-02 16:34N 37°49' W 122°20'2 1.8
2016-Feb-02 15:33N 37°48' W 122°18'2 1.9
2016-Feb-02 14:33N 37°49' W 122°20'1 0.7
2016-Feb-02 13:33N 37°48' W 122°21'2 1.7
2016-Feb-02 12:33N 37°49' W 122°19'0 0.0
2016-Feb-02 11:33N 37°49' W 122°19'0 0.0
2016-Feb-02 10:33N 37°49' W 122°19'0 0.0
2016-Feb-02 09:33N 37°49' W 122°19'0 0.0
2016-Feb-02 08:33N 37°49' W 122°19'0 0.0
2016-Feb-02 07:33N 37°49' W 122°19'0 0.0
2016-Feb-02 06:33N 37°49' W 122°19'0 0.0
2016-Feb-02 05:33N 37°49' W 122°19'0 0.0
2016-Feb-02 04:33N 37°49' W 122°19'0 0.0
2016-Feb-02 03:33N 37°49' W 122°19'0 0.0
2016-Feb-02 02:33N 37°49' W 122°19'0 0.0
2016-Feb-02 01:33N 37°49' W 122°19'0 0.0
2016-Feb-02 00:33N 37°49' W 122°19'0 0.0
2016-Feb-01 23:33N 37°49' W 122°19'0 0.0
2016-Feb-01 22:33N 37°49' W 122°19'0 0.0
2016-Feb-01 21:34N 37°49' W 122°19'7 7.0
2016-Feb-01 20:33N 37°54' W 122°25'3 2.7
2016-Feb-01 19:33N 37°55' W 122°22'0 0.0
2016-Feb-01 18:33N 37°55' W 122°22'0 0.0
2016-Feb-01 17:33N 37°55' W 122°22'0 0.0
2016-Feb-01 16:33N 37°55' W 122°22'0 0.3
2016-Feb-01 15:33N 37°55' W 122°22'0 0.0
2016-Feb-01 14:33N 37°55' W 122°22'0 0.0
2016-Feb-01 13:33N 37°55' W 122°22'0 0.0
2016-Feb-01 12:33N 37°55' W 122°22'4 4.3
2016-Feb-01 11:33N 37°51' W 122°23'3 3.0
2016-Feb-01 10:33N 37°49' W 122°20'0 0.2
2016-Feb-01 09:33N 37°49' W 122°20'1 1.1
2016-Feb-01 08:33N 37°49' W 122°19'0 0.0
2016-Feb-01 07:33N 37°49' W 122°19'0 0.0
2016-Feb-01 06:33N 37°49' W 122°19'0 0.0
2016-Feb-01 05:33N 37°49' W 122°19'0 0.0
2016-Feb-01 04:33N 37°49' W 122°19'6 6.2
2016-Feb-01 03:33N 37°53' W 122°25'3 2.7
2016-Feb-01 02:33N 37°55' W 122°22'2 1.6
2016-Feb-01 01:33N 37°54' W 122°24'7 7.1
2016-Feb-01 00:33N 37°48' W 122°20'1 0.9
2016-Jan-31 23:33N 37°48' W 122°19'2 1.6
2016-Jan-31 22:33N 37°49' W 122°19'0 0.0
2016-Jan-31 21:33N 37°49' W 122°19'0 0.0
2016-Jan-31 20:33N 37°49' W 122°19'0 0.0
2016-Jan-31 19:33N 37°49' W 122°19'0 0.0
2016-Jan-31 18:33N 37°49' W 122°19'0 0.0
2016-Jan-31 17:33N 37°49' W 122°19'0 0.0
2016-Jan-31 16:33N 37°49' W 122°19'0 0.0
2016-Jan-31 15:33N 37°49' W 122°19'1 0.8
2016-Jan-31 14:33N 37°49' W 122°19'2 1.8
2016-Jan-31 13:34N 37°48' W 122°21'1 1.3
2016-Jan-31 12:33N 37°49' W 122°20'1 1.0
2016-Jan-31 11:33N 37°48' W 122°19'0 0.1
2016-Jan-31 10:33N 37°48' W 122°19'2 1.5
2016-Jan-31 09:33N 37°49' W 122°19'0 0.0
2016-Jan-31 08:33N 37°49' W 122°19'0 0.0
2016-Jan-31 07:33N 37°49' W 122°19'0 0.0
2016-Jan-31 06:33N 37°49' W 122°19'0 0.0
2016-Jan-31 05:33N 37°49' W 122°19'0 0.0
2016-Jan-31 04:33N 37°49' W 122°19'0 0.0
2016-Jan-31 03:33N 37°49' W 122°19'0 0.0
2016-Jan-31 02:33N 37°49' W 122°19'0 0.0
2016-Jan-31 01:33N 37°49' W 122°19'1 1.0
2016-Jan-31 00:33N 37°49' W 122°20'1 1.1
2016-Jan-30 23:33N 37°48' W 122°21'2 2.1
2016-Jan-30 22:33N 37°49' W 122°19'0 0.0
2016-Jan-30 21:33N 37°49' W 122°19'0 0.0
2016-Jan-30 20:33N 37°49' W 122°19'0 0.0
2016-Jan-30 19:33N 37°49' W 122°19'0 0.0
2016-Jan-30 18:33N 37°49' W 122°19'0 0.0
2016-Jan-30 17:33N 37°49' W 122°19'0 0.0
2016-Jan-30 16:33N 37°49' W 122°19'0 0.0
2016-Jan-30 15:33N 37°49' W 122°19'2 1.6
2016-Jan-30 14:33N 37°48' W 122°19'1 0.7
2016-Jan-30 13:33N 37°48' W 122°18'1 0.8
2016-Jan-30 12:34N 37°48' W 122°19'0 0.1
2016-Jan-30 11:33N 37°48' W 122°19'2 1.5
2016-Jan-30 10:33N 37°49' W 122°19'0 0.0
2016-Jan-30 09:33N 37°49' W 122°19'0 0.0
2016-Jan-30 08:33N 37°49' W 122°19'0 0.0
2016-Jan-30 07:33N 37°49' W 122°19'0 0.0
2016-Jan-30 06:33N 37°49' W 122°19'0 0.0
2016-Jan-30 05:33N 37°49' W 122°19'0 0.0
2016-Jan-30 04:33N 37°49' W 122°19'0 0.0
2016-Jan-30 03:33N 37°49' W 122°19'0 0.0
2016-Jan-30 02:34N 37°49' W 122°19'0 0.0
2016-Jan-30 01:33N 37°49' W 122°19'0 0.0
2016-Jan-30 00:34N 37°49' W 122°19'0 0.0
2016-Jan-29 23:33N 37°49' W 122°19'7 7.1
2016-Jan-29 22:33N 37°55' W 122°25'2 2.3
2016-Jan-29 21:33N 37°55' W 122°22'2 2.4
2016-Jan-29 20:33N 37°55' W 122°25'0 0.1
2016-Jan-29 19:33N 37°55' W 122°25'8 7.6
2016-Jan-29 18:34N 37°49' W 122°20'1 0.9
2016-Jan-29 17:34N 37°49' W 122°19'0 0.4
2016-Jan-29 16:33N 37°49' W 122°19'0 0.4
2016-Jan-29 15:33N 37°49' W 122°19'0 0.0
2016-Jan-29 14:33N 37°49' W 122°19'5 5.2
2016-Jan-29 13:33N 37°52' W 122°24'9 8.5
2016-Jan-29 12:32N 38°01' W 122°24'14 0.8
2016-Jan-28 18:15N 38°03' W 122°06'3 1.7
2016-Jan-28 16:14N 38°03' W 122°10'6 7.4
2016-Jan-28 15:26N 38°03' W 122°18'8 8.9
2016-Jan-28 14:33N 37°59' W 122°26'8 8.4
2016-Jan-28 13:33N 37°50' W 122°25'4 3.6
2016-Jan-28 12:33N 37°48' W 122°22'2 1.6
2016-Jan-28 11:33N 37°49' W 122°20'  
Track history (hours):
 
Tides and Currents Weather Stations Pressure Air Temp Water Temp Dewpoint Dewpoint Depression Visibility Wind Speed Wind Dir Waves Ship Positions

Valor

Owner: Crowley Marine Services, Seattle, WA. More information available from US FCC via Universal Licensing System and Coast Guard Vessel Documentation Center.

Last reported at 2016-Feb-07 11:10 UTC. Time now 2016-Feb-07 12:51 UTC.
Position N 38°03' W 122°15'.

Length 8 m; draft 5.5 m.

Type: Tug. MMSI: 367301480.

Date/timePositionNaut miles runAvg speedWind from/ knotsBaromVisibWave heightAir tempDewpointWater temp
2016-Feb-07 11:10N 38°03' W 122°15'0 0.0
2016-Feb-07 10:31N 38°03' W 122°15'0 0.0
2016-Feb-07 09:33N 38°03' W 122°15'0 0.0
2016-Feb-07 08:33N 38°03' W 122°15'1 0.8
2016-Feb-07 07:24N 38°03' W 122°16'1 1.3
2016-Feb-07 06:33N 38°03' W 122°17'2 1.9
2016-Feb-07 05:30N 38°03' W 122°15'1 0.1
2016-Feb-06 15:33N 38°04' W 122°16'10 9.8
2016-Feb-06 14:33N 37°58' W 122°26'2 2.4
2016-Feb-06 13:33N 37°55' W 122°25'5 5.2
2016-Feb-06 12:33N 37°50' W 122°24'2 2.2
2016-Feb-06 11:34N 37°48' W 122°24'0 0.0
2016-Feb-06 10:34N 37°48' W 122°24'0 0.0
2016-Feb-06 09:34N 37°48' W 122°24'0 0.0
2016-Feb-06 08:34N 37°48' W 122°24'0 0.0
2016-Feb-06 07:34N 37°48' W 122°24'0 0.0
2016-Feb-06 06:34N 37°48' W 122°24'0 0.0
2016-Feb-06 05:33N 37°48' W 122°24'0 0.0
2016-Feb-06 04:33N 37°48' W 122°24'0 0.0
2016-Feb-06 03:33N 37°48' W 122°24'0 0.0
2016-Feb-06 02:33N 37°48' W 122°24'4 3.9
2016-Feb-06 01:33N 37°45' W 122°21'3 3.2
2016-Feb-06 00:34N 37°48' W 122°23'7 6.6
2016-Feb-05 23:33N 37°49' W 122°31'3 3.4
2016-Feb-05 22:33N 37°49' W 122°27'2 2.5
2016-Feb-05 21:33N 37°48' W 122°24'1 1.2
2016-Feb-05 20:33N 37°49' W 122°24'6 6.2
2016-Feb-05 19:34N 37°56' W 122°25'3 2.8
2016-Feb-05 18:33N 37°53' W 122°25'3 2.6
2016-Feb-05 17:33N 37°55' W 122°25'1 0.6
2016-Feb-05 16:33N 37°55' W 122°25'1 0.6
2016-Feb-05 15:33N 37°55' W 122°25'0 0.0
2016-Feb-05 14:33N 37°55' W 122°25'0 0.0
2016-Feb-05 13:33N 37°55' W 122°25'0 0.0
2016-Feb-05 12:33N 37°55' W 122°25'0 0.0
2016-Feb-05 11:33N 37°55' W 122°25'0 0.0
2016-Feb-05 10:33N 37°55' W 122°25'0 0.0
2016-Feb-05 09:33N 37°55' W 122°25'0 0.0
2016-Feb-05 08:33N 37°55' W 122°25'0 0.0
2016-Feb-05 07:33N 37°55' W 122°25'0 0.0
2016-Feb-05 06:33N 37°55' W 122°25'0 0.0
2016-Feb-05 05:33N 37°55' W 122°25'0 0.0
2016-Feb-05 04:33N 37°55' W 122°25'1 0.5
2016-Feb-05 03:33N 37°56' W 122°25'3 3.2
2016-Feb-05 02:33N 37°52' W 122°24'3 2.8
2016-Feb-05 01:33N 37°55' W 122°25'0 0.0
2016-Feb-05 00:33N 37°55' W 122°25'0 0.0
2016-Feb-04 23:33N 37°55' W 122°25'0 0.0
2016-Feb-04 22:33N 37°55' W 122°25'0 0.0
2016-Feb-04 21:33N 37°55' W 122°25'0 0.0
2016-Feb-04 20:33N 37°55' W 122°25'0 0.0
2016-Feb-04 19:33N 37°55' W 122°25'3 3.3
2016-Feb-04 18:33N 37°58' W 122°26'9 9.3
2016-Feb-04 17:33N 38°04' W 122°16'6 3.1
2016-Feb-04 15:28N 38°02' W 122°08'5 4.3
2016-Feb-04 14:24N 38°04' W 122°14'4 0.3
2016-Feb-04 03:33N 38°03' W 122°18'9 9.4
2016-Feb-04 02:34N 37°56' W 122°26'1 1.2
2016-Feb-04 01:33N 37°55' W 122°25'7 7.3
2016-Feb-04 00:33N 37°48' W 122°30'1 0.9
2016-Feb-03 23:33N 37°48' W 122°30'8 8.1
2016-Feb-03 22:34N 37°49' W 122°19'1 0.9
2016-Feb-03 21:33N 37°49' W 122°19'0 0.0
2016-Feb-03 20:33N 37°49' W 122°19'0 0.0
2016-Feb-03 19:33N 37°49' W 122°19'0 0.0
2016-Feb-03 18:33N 37°49' W 122°19'0 0.0
2016-Feb-03 17:33N 37°49' W 122°19'2 1.6
2016-Feb-03 16:34N 37°48' W 122°19'1 0.7
2016-Feb-03 15:33N 37°48' W 122°18'2 2.0
2016-Feb-03 14:33N 37°49' W 122°20'0 0.0
2016-Feb-03 13:33N 37°49' W 122°20'0 0.0
2016-Feb-03 12:33N 37°49' W 122°20'0 0.1
2016-Feb-03 11:33N 37°49' W 122°20'1 0.5
2016-Feb-03 10:34N 37°49' W 122°19'1 0.6
2016-Feb-03 09:33N 37°49' W 122°19'0 0.0
2016-Feb-03 08:33N 37°49' W 122°19'0 0.0
2016-Feb-03 07:33N 37°49' W 122°19'0 0.0
2016-Feb-03 06:33N 37°49' W 122°19'0 0.0
2016-Feb-03 05:33N 37°49' W 122°19'0 0.0
2016-Feb-03 04:33N 37°49' W 122°19'0 0.0
2016-Feb-03 03:33N 37°49' W 122°19'0 0.0
2016-Feb-03 02:33N 37°49' W 122°19'0 0.0
2016-Feb-03 01:33N 37°49' W 122°19'0 0.0
2016-Feb-03 00:33N 37°49' W 122°19'0 0.0
2016-Feb-02 23:33N 37°49' W 122°19'0 0.0
2016-Feb-02 22:33N 37°49' W 122°19'0 0.0
2016-Feb-02 21:33N 37°49' W 122°19'0 0.0
2016-Feb-02 20:33N 37°49' W 122°19'0 0.0
2016-Feb-02 19:33N 37°49' W 122°19'0 0.0
2016-Feb-02 18:33N 37°49' W 122°19'0 0.0
2016-Feb-02 17:33N 37°49' W 122°19'1 0.9
2016-Feb-02 16:34N 37°49' W 122°20'2 1.8
2016-Feb-02 15:33N 37°48' W 122°18'2 1.9
2016-Feb-02 14:33N 37°49' W 122°20'1 0.7
2016-Feb-02 13:33N 37°48' W 122°21'2 1.7
2016-Feb-02 12:33N 37°49' W 122°19'0 0.0
2016-Feb-02 11:33N 37°49' W 122°19'0 0.0
2016-Feb-02 10:33N 37°49' W 122°19'0 0.0
2016-Feb-02 09:33N 37°49' W 122°19'0 0.0
2016-Feb-02 08:33N 37°49' W 122°19'0 0.0
2016-Feb-02 07:33N 37°49' W 122°19'0 0.0
2016-Feb-02 06:33N 37°49' W 122°19'0 0.0
2016-Feb-02 05:33N 37°49' W 122°19'0 0.0
2016-Feb-02 04:33N 37°49' W 122°19'0 0.0
2016-Feb-02 03:33N 37°49' W 122°19'0 0.0
2016-Feb-02 02:33N 37°49' W 122°19'0 0.0
2016-Feb-02 01:33N 37°49' W 122°19'0 0.0
2016-Feb-02 00:33N 37°49' W 122°19'0 0.0
2016-Feb-01 23:33N 37°49' W 122°19'0 0.0
2016-Feb-01 22:33N 37°49' W 122°19'0 0.0
2016-Feb-01 21:34N 37°49' W 122°19'7 7.0
2016-Feb-01 20:33N 37°54' W 122°25'3 2.7
2016-Feb-01 19:33N 37°55' W 122°22'0 0.0
2016-Feb-01 18:33N 37°55' W 122°22'0 0.0
2016-Feb-01 17:33N 37°55' W 122°22'0 0.0
2016-Feb-01 16:33N 37°55' W 122°22'0 0.3
2016-Feb-01 15:33N 37°55' W 122°22'0 0.0
2016-Feb-01 14:33N 37°55' W 122°22'0 0.0
2016-Feb-01 13:33N 37°55' W 122°22'0 0.0
2016-Feb-01 12:33N 37°55' W 122°22'4 4.3
2016-Feb-01 11:33N 37°51' W 122°23'3 3.0
2016-Feb-01 10:33N 37°49' W 122°20'0 0.2
2016-Feb-01 09:33N 37°49' W 122°20'1 1.1
2016-Feb-01 08:33N 37°49' W 122°19'0 0.0
2016-Feb-01 07:33N 37°49' W 122°19'0 0.0
2016-Feb-01 06:33N 37°49' W 122°19'0 0.0
2016-Feb-01 05:33N 37°49' W 122°19'0 0.0
2016-Feb-01 04:33N 37°49' W 122°19'6 6.2
2016-Feb-01 03:33N 37°53' W 122°25'3 2.7
2016-Feb-01 02:33N 37°55' W 122°22'2 1.6
2016-Feb-01 01:33N 37°54' W 122°24'7 7.1
2016-Feb-01 00:33N 37°48' W 122°20'1 0.9
2016-Jan-31 23:33N 37°48' W 122°19'2 1.6
2016-Jan-31 22:33N 37°49' W 122°19'0 0.0
2016-Jan-31 21:33N 37°49' W 122°19'0 0.0
2016-Jan-31 20:33N 37°49' W 122°19'0 0.0
2016-Jan-31 19:33N 37°49' W 122°19'0 0.0
2016-Jan-31 18:33N 37°49' W 122°19'0 0.0
2016-Jan-31 17:33N 37°49' W 122°19'0 0.0
2016-Jan-31 16:33N 37°49' W 122°19'0 0.0
2016-Jan-31 15:33N 37°49' W 122°19'1 0.8
2016-Jan-31 14:33N 37°49' W 122°19'2 1.8
2016-Jan-31 13:34N 37°48' W 122°21'1 1.3
2016-Jan-31 12:33N 37°49' W 122°20'1 1.0
2016-Jan-31 11:33N 37°48' W 122°19'0 0.1
2016-Jan-31 10:33N 37°48' W 122°19'2 1.5
2016-Jan-31 09:33N 37°49' W 122°19'0 0.0
2016-Jan-31 08:33N 37°49' W 122°19'0 0.0
2016-Jan-31 07:33N 37°49' W 122°19'0 0.0
2016-Jan-31 06:33N 37°49' W 122°19'0 0.0
2016-Jan-31 05:33N 37°49' W 122°19'0 0.0
2016-Jan-31 04:33N 37°49' W 122°19'0 0.0
2016-Jan-31 03:33N 37°49' W 122°19'0 0.0
2016-Jan-31 02:33N 37°49' W 122°19'0 0.0
2016-Jan-31 01:33N 37°49' W 122°19'1 1.0
2016-Jan-31 00:33N 37°49' W 122°20'1 1.1
2016-Jan-30 23:33N 37°48' W 122°21'2 2.1
2016-Jan-30 22:33N 37°49' W 122°19'0 0.0
2016-Jan-30 21:33N 37°49' W 122°19'0 0.0
2016-Jan-30 20:33N 37°49' W 122°19'0 0.0
2016-Jan-30 19:33N 37°49' W 122°19'0 0.0
2016-Jan-30 18:33N 37°49' W 122°19'0 0.0
2016-Jan-30 17:33N 37°49' W 122°19'0 0.0
2016-Jan-30 16:33N 37°49' W 122°19'0 0.0
2016-Jan-30 15:33N 37°49' W 122°19'2 1.6
2016-Jan-30 14:33N 37°48' W 122°19'1 0.7
2016-Jan-30 13:33N 37°48' W 122°18'1 0.8
2016-Jan-30 12:34N 37°48' W 122°19'0 0.1
2016-Jan-30 11:33N 37°48' W 122°19'2 1.5
2016-Jan-30 10:33N 37°49' W 122°19'0 0.0
2016-Jan-30 09:33N 37°49' W 122°19'0 0.0
2016-Jan-30 08:33N 37°49' W 122°19'0 0.0
2016-Jan-30 07:33N 37°49' W 122°19'0 0.0
2016-Jan-30 06:33N 37°49' W 122°19'0 0.0
2016-Jan-30 05:33N 37°49' W 122°19'0 0.0
2016-Jan-30 04:33N 37°49' W 122°19'0 0.0
2016-Jan-30 03:33N 37°49' W 122°19'0 0.0
2016-Jan-30 02:34N 37°49' W 122°19'0 0.0
2016-Jan-30 01:33N 37°49' W 122°19'0 0.0
2016-Jan-30 00:34N 37°49' W 122°19'0 0.0
2016-Jan-29 23:33N 37°49' W 122°19'7 7.1
2016-Jan-29 22:33N 37°55' W 122°25'2 2.3
2016-Jan-29 21:33N 37°55' W 122°22'2 2.4
2016-Jan-29 20:33N 37°55' W 122°25'0 0.1
2016-Jan-29 19:33N 37°55' W 122°25'8 7.6
2016-Jan-29 18:34N 37°49' W 122°20'1 0.9
2016-Jan-29 17:34N 37°49' W 122°19'0 0.4
2016-Jan-29 16:33N 37°49' W 122°19'0 0.4
2016-Jan-29 15:33N 37°49' W 122°19'0 0.0
2016-Jan-29 14:33N 37°49' W 122°19'5 5.2
2016-Jan-29 13:33N 37°52' W 122°24'9 8.5
2016-Jan-29 12:32N 38°01' W 122°24'14 0.8
2016-Jan-28 18:15N 38°03' W 122°06'3 1.7
2016-Jan-28 16:14N 38°03' W 122°10'6 7.4
2016-Jan-28 15:26N 38°03' W 122°18'8 8.9
2016-Jan-28 14:33N 37°59' W 122°26'8 8.4
2016-Jan-28 13:33N 37°50' W 122°25'4 3.6
2016-Jan-28 12:33N 37°48' W 122°22'2 1.6
2016-Jan-28 11:33N 37°49' W 122°20'  

Dump ship's entire track history